createdAt,value
2018-01-15T00:10:38.685Z,15.75
2018-01-15T00:13:07.095Z,15.32
2018-01-15T00:18:19.634Z,15.45
2018-01-15T00:20:48.070Z,15.07
2018-01-15T00:23:16.986Z,15.90
2018-01-15T00:25:46.256Z,15.05
2018-01-15T00:31:18.989Z,15.90
2018-01-15T00:33:49.196Z,15.90
2018-01-15T00:36:19.754Z,17.23
2018-01-15T00:38:52.168Z,15.65
2018-01-15T00:41:33.145Z,16.50
2018-01-15T01:09:51.803Z,15.70
2018-01-15T01:26:35.032Z,16.02
2018-01-15T01:29:05.626Z,16.02
2018-01-15T01:31:50.394Z,16.95
2018-01-15T01:34:27.389Z,16.77
2018-01-15T01:36:55.961Z,17.48
2018-01-15T01:39:25.166Z,16.17
2018-01-15T01:41:56.422Z,16.92
2018-01-15T01:44:31.360Z,16.60
2018-01-15T01:47:28.348Z,15.82
2018-01-15T01:49:59.281Z,14.68
2018-01-15T01:52:30.122Z,16.50
2018-01-15T01:55:13.476Z,15.95
2018-01-15T02:23:56.961Z,15.80
2018-01-15T03:12:35.114Z,16.92
2018-01-15T03:17:59.665Z,15.95
2018-01-15T03:20:29.958Z,16.00
2018-01-15T03:22:59.451Z,15.38
2018-01-15T03:25:29.533Z,16.40
2018-01-15T03:27:58.812Z,15.27
2018-01-15T03:30:29.341Z,15.43
2018-01-15T03:33:00.876Z,16.85
2018-01-15T03:35:31.036Z,16.50
2018-01-15T03:38:01.201Z,17.25
2018-01-15T03:40:29.736Z,15.88
2018-01-15T03:42:58.246Z,16.33
2018-01-15T03:45:27.630Z,17.35
2018-01-15T03:48:06.661Z,15.70
2018-01-15T03:50:36.331Z,16.52
2018-01-15T03:53:06.408Z,16.50
2018-01-15T03:55:35.664Z,16.02
2018-01-15T03:58:04.069Z,16.60
2018-01-15T04:00:33.541Z,16.98
2018-01-15T04:03:02.067Z,17.67
2018-01-15T04:05:30.402Z,17.10
2018-01-15T04:08:00.123Z,17.40
2018-01-15T04:10:40.402Z,16.55
2018-01-15T04:13:14.811Z,15.80
2018-01-15T04:15:43.156Z,16.15
2018-01-15T04:18:11.436Z,16.80
2018-01-15T04:20:55.914Z,16.80
2018-01-15T04:23:37.862Z,15.40
2018-01-15T04:26:07.141Z,15.18
2018-01-15T04:28:49.230Z,16.08
2018-01-15T04:31:18.119Z,16.67
2018-01-15T04:33:47.684Z,15.77
2018-01-15T04:36:17.019Z,17.23
2018-01-15T04:38:45.570Z,16.42
2018-01-15T04:41:13.902Z,15.52
2018-01-15T04:43:42.180Z,17.45
2018-01-15T04:46:10.556Z,15.88
2018-01-15T04:48:39.079Z,17.08
2018-01-15T04:51:08.361Z,16.65
2018-01-15T04:53:38.841Z,16.58
2018-01-15T04:56:11.061Z,17.10
2018-01-15T04:58:46.279Z,16.45
2018-01-15T05:01:15.385Z,17.10
2018-01-15T05:03:43.746Z,15.65
2018-01-15T05:06:13.836Z,17.20
2018-01-15T05:08:43.114Z,17.60
2018-01-15T05:11:12.533Z,17.35
2018-01-15T05:13:40.898Z,16.73
2018-01-15T05:16:11.615Z,17.55
2018-01-15T05:18:55.644Z,17.12
2018-01-15T05:21:24.316Z,17.85
2018-01-15T05:23:52.622Z,16.77
2018-01-15T05:26:21.024Z,17.05
2018-01-15T05:28:51.449Z,17.12
2018-01-15T05:31:20.750Z,16.02
2018-01-15T05:33:49.219Z,15.70
2018-01-15T05:36:18.434Z,16.02
2018-01-15T05:38:48.392Z,16.30
2018-01-15T05:41:17.693Z,16.52
2018-01-15T05:43:46.221Z,17.75
2018-01-15T05:46:14.755Z,16.55
2018-01-15T05:48:44.150Z,16.15
2018-01-15T05:51:12.613Z,16.45
2018-01-15T05:53:41.003Z,16.30
2018-01-15T05:56:11.860Z,17.90
2018-01-15T05:58:45.019Z,15.77
2018-01-15T06:01:14.093Z,15.18
2018-01-15T06:03:42.627Z,17.12
2018-01-15T06:06:12.699Z,16.12
2018-01-15T06:08:41.149Z,15.45
2018-01-15T06:11:13.754Z,16.55
2018-01-15T06:13:42.225Z,18.00
2018-01-15T06:16:11.221Z,16.15
2018-01-15T06:18:46.995Z,16.45
2018-01-15T06:21:16.948Z,16.92
2018-01-15T06:23:47.407Z,17.02
2018-01-15T06:26:45.813Z,17.15
2018-01-15T06:29:14.607Z,17.08
2018-01-15T06:31:52.364Z,15.35
2018-01-15T06:34:20.914Z,16.25
2018-01-15T06:37:00.595Z,16.50
2018-01-15T06:40:49.967Z,15.80
2018-01-15T06:43:20.801Z,15.70
2018-01-15T06:45:50.029Z,16.50
2018-01-15T06:48:19.377Z,17.58
2018-01-15T06:50:50.452Z,16.92
2018-01-15T06:53:19.342Z,15.80
2018-01-15T06:55:56.519Z,16.77
2018-01-15T06:58:31.900Z,16.23
2018-01-15T07:01:06.686Z,15.48
2018-01-15T07:03:36.328Z,16.23
2018-01-15T07:06:06.387Z,15.68
2018-01-15T07:08:36.162Z,16.10
2018-01-15T07:11:06.461Z,16.70
2018-01-15T07:13:35.335Z,16.83
2018-01-15T07:16:07.177Z,16.67
2018-01-15T07:18:46.173Z,15.73
2018-01-15T07:21:21.411Z,16.85
2018-01-15T07:27:41.694Z,16.37
2018-01-15T07:30:12.562Z,14.90
2018-01-15T07:32:45.645Z,16.35
2018-01-15T07:35:15.861Z,16.65
2018-01-15T07:37:50.696Z,14.95
2018-01-15T07:40:21.331Z,15.60
2018-01-15T07:42:49.834Z,15.85
2018-01-15T07:45:19.439Z,16.12
2018-01-15T07:47:48.097Z,16.85
2018-01-15T07:50:39.208Z,16.25
2018-01-15T07:53:08.785Z,14.73
2018-01-15T07:55:38.486Z,16.85
2018-01-15T08:01:20.225Z,16.25
2018-01-15T08:06:39.482Z,15.63
2018-01-15T08:09:10.789Z,16.08
2018-01-15T08:11:41.075Z,15.80
2018-01-15T08:14:10.475Z,14.80
2018-01-15T08:16:44.035Z,15.35
2018-01-15T08:19:14.326Z,15.05
2018-01-15T08:21:51.729Z,15.15
2018-01-15T08:24:20.290Z,14.43
2018-01-15T08:29:30.351Z,15.00
2018-01-15T08:31:59.573Z,15.43
2018-01-15T08:34:27.889Z,15.18
2018-01-15T08:37:00.183Z,15.00
2018-01-15T08:39:28.588Z,13.88
2018-01-15T08:42:00.738Z,15.57
2018-01-15T08:44:31.182Z,16.35
2018-01-15T08:47:00.349Z,15.32
2018-01-15T08:49:28.659Z,14.10
2018-01-15T08:51:58.960Z,15.10
2018-01-15T08:54:28.133Z,14.00
2018-01-15T08:56:56.468Z,15.05
2018-01-15T08:59:25.550Z,13.50
2018-01-15T09:01:53.956Z,14.25
2018-01-15T09:04:22.180Z,13.90
2018-01-15T09:06:50.533Z,13.62
2018-01-15T09:09:18.750Z,13.32
2018-01-15T09:11:47.106Z,13.98
2018-01-15T09:14:16.244Z,14.30
2018-01-15T09:16:45.371Z,13.70
2018-01-15T09:19:13.681Z,13.40
2018-01-15T09:21:43.875Z,12.60
2018-01-15T09:24:12.208Z,13.30
2018-01-15T09:26:41.325Z,13.40
2018-01-15T09:29:09.596Z,13.10
2018-01-15T09:31:40.737Z,12.95
2018-01-15T09:34:09.003Z,13.90
2018-01-15T09:36:37.279Z,13.00
2018-01-15T09:39:05.571Z,12.65
2018-01-15T09:41:33.826Z,13.07
2018-01-15T09:44:11.176Z,13.18
2018-01-15T09:46:53.336Z,13.30
2018-01-15T09:49:21.679Z,11.90
2018-01-15T09:51:50.472Z,13.15
2018-01-15T09:54:18.983Z,12.57
2018-01-15T09:56:47.415Z,13.30
2018-01-15T10:02:40.136Z,12.55
2018-01-15T10:08:41.220Z,12.20
2018-01-15T10:11:09.665Z,12.05
2018-01-15T10:13:38.851Z,12.50
2018-01-15T10:18:58.044Z,12.37
2018-01-15T10:21:27.288Z,12.00
2018-01-15T10:23:56.533Z,12.25
2018-01-15T10:26:34.720Z,11.55
2018-01-15T10:29:03.160Z,13.00
2018-01-15T10:31:35.376Z,12.57
2018-01-15T10:34:03.702Z,12.13
2018-01-15T10:36:35.157Z,11.65
2018-01-15T10:39:03.775Z,11.60
2018-01-15T10:45:07.326Z,13.35
2018-01-15T10:47:35.822Z,11.70
2018-01-15T10:50:05.458Z,13.15
2018-01-15T10:52:34.884Z,11.45
2018-01-15T10:55:05.243Z,12.55
2018-01-15T10:57:34.501Z,12.37
2018-01-15T11:00:03.548Z,12.40
2018-01-15T11:02:34.477Z,11.52
2018-01-15T11:05:11.039Z,11.48
2018-01-15T11:07:39.431Z,11.30
2018-01-15T11:10:08.084Z,12.25
2018-01-15T11:12:38.417Z,11.95
2018-01-15T11:15:10.684Z,12.25
2018-01-15T11:17:41.800Z,11.85
2018-01-15T11:20:10.147Z,11.68
2018-01-15T11:22:38.491Z,12.27
2018-01-15T11:25:06.797Z,11.80
2018-01-15T11:27:35.110Z,10.60
2018-01-15T11:30:05.077Z,11.60
2018-01-15T11:32:33.349Z,11.35
2018-01-15T11:35:02.482Z,11.07
2018-01-15T11:37:31.699Z,10.20
2018-01-15T11:39:59.968Z,11.40
2018-01-15T11:42:29.093Z,11.05
2018-01-15T11:45:12.706Z,10.57
2018-01-15T11:47:41.893Z,10.32
2018-01-15T11:50:11.085Z,11.20
2018-01-15T11:52:40.239Z,11.38
2018-01-15T11:55:08.508Z,11.23
2018-01-15T11:57:38.006Z,10.82
2018-01-15T12:00:07.359Z,10.77
2018-01-15T12:02:35.631Z,10.80
2018-01-15T12:05:05.449Z,10.18
2018-01-15T12:07:33.701Z,10.90
2018-01-15T12:10:02.113Z,10.90
2018-01-15T12:12:30.362Z,9.63
2018-01-15T12:14:58.903Z,10.95
2018-01-15T12:17:27.309Z,10.80
2018-01-15T12:19:56.464Z,11.10
2018-01-15T12:22:24.761Z,10.20
2018-01-15T12:24:53.059Z,10.10
2018-01-15T12:27:21.422Z,10.75
2018-01-15T12:29:49.733Z,10.75
2018-01-15T12:32:19.318Z,10.98
2018-01-15T12:34:47.640Z,10.27
2018-01-15T12:37:16.069Z,10.20
2018-01-15T12:39:44.427Z,11.18
2018-01-15T12:42:12.721Z,9.98
2018-01-15T12:44:41.002Z,10.38
2018-01-15T12:47:09.269Z,9.57
2018-01-15T12:49:37.611Z,11.20
2018-01-15T12:52:05.899Z,9.82
2018-01-15T12:54:34.182Z,10.45
2018-01-15T12:57:02.471Z,11.30
2018-01-15T12:59:30.784Z,10.90
2018-01-15T13:01:59.970Z,10.77
2018-01-15T13:04:28.268Z,10.88
2018-01-15T13:06:57.376Z,9.95
2018-01-15T13:09:25.629Z,10.93
2018-01-15T13:11:54.702Z,10.70
2018-01-15T13:14:23.077Z,10.05
2018-01-15T13:16:51.484Z,10.48
2018-01-15T13:19:19.860Z,9.90
2018-01-15T13:21:48.103Z,9.98
2018-01-15T13:24:16.514Z,10.23
2018-01-15T13:26:44.821Z,10.23
2018-01-15T13:29:13.076Z,10.35
2018-01-15T13:31:41.448Z,10.75
2018-01-15T13:34:09.759Z,10.32
2018-01-15T13:36:38.134Z,9.90
2018-01-15T13:39:07.228Z,10.23
2018-01-15T13:41:35.622Z,10.38
2018-01-15T13:44:04.086Z,9.65
2018-01-15T13:46:33.273Z,10.73
2018-01-15T13:49:01.655Z,10.00
2018-01-15T13:51:29.986Z,10.27
2018-01-15T13:53:59.081Z,11.15
2018-01-15T13:56:27.325Z,10.70
2018-01-15T13:58:55.572Z,10.75
2018-01-15T14:01:23.837Z,10.50
2018-01-15T14:03:52.131Z,10.85
2018-01-15T14:06:20.600Z,10.70
2018-01-15T14:08:49.032Z,10.38
2018-01-15T14:11:17.462Z,10.45
2018-01-15T14:13:45.840Z,10.18
2018-01-15T14:16:14.981Z,9.30
2018-01-15T14:19:02.239Z,10.15
2018-01-15T14:21:30.690Z,9.88
2018-01-15T14:24:02.860Z,10.88
2018-01-15T14:26:54.792Z,10.20
2018-01-15T14:29:24.103Z,10.75
2018-01-15T14:31:52.548Z,10.60
2018-01-15T14:34:21.674Z,10.40
2018-01-15T14:36:50.010Z,9.95
2018-01-15T14:39:18.321Z,10.20
2018-01-15T14:41:49.290Z,10.73
2018-01-15T14:44:17.558Z,9.85
2018-01-15T14:46:58.664Z,10.00
2018-01-15T14:49:27.802Z,9.80
2018-01-15T14:51:57.451Z,10.38
2018-01-15T14:54:25.798Z,9.68
2018-01-15T14:56:54.237Z,10.10
2018-01-15T14:59:22.653Z,9.35
2018-01-15T15:01:52.262Z,9.70
2018-01-15T15:04:57.725Z,10.75
2018-01-15T15:07:33.742Z,9.20
2018-01-15T15:10:02.808Z,11.10
2018-01-15T15:26:23.450Z,9.60
2018-01-15T15:28:51.877Z,10.57
2018-01-15T15:31:20.264Z,10.20
2018-01-15T15:33:49.411Z,8.93
2018-01-15T15:36:17.782Z,9.63
2018-01-15T15:38:46.267Z,10.13
2018-01-15T15:41:14.730Z,9.75
2018-01-15T15:43:43.166Z,9.73
2018-01-15T15:46:12.362Z,8.32
2018-01-15T15:48:41.011Z,9.93
2018-01-15T15:51:10.257Z,9.88
2018-01-15T15:53:38.551Z,10.32
2018-01-15T15:56:06.902Z,10.70
2018-01-15T15:58:35.924Z,9.38
2018-01-15T16:01:05.562Z,9.93
2018-01-15T16:03:34.764Z,9.55
2018-01-15T16:06:04.214Z,9.30
2018-01-15T16:08:34.066Z,9.32
2018-01-15T16:11:02.596Z,9.23
2018-01-15T16:13:31.590Z,10.20
2018-01-15T16:16:00.898Z,9.27
2018-01-15T16:18:38.501Z,9.38
2018-01-15T16:21:06.877Z,8.70
2018-01-15T16:23:36.150Z,10.02
2018-01-15T16:26:04.668Z,10.25
2018-01-15T16:28:34.090Z,10.55
2018-01-15T16:31:03.464Z,10.00
2018-01-15T16:33:36.119Z,10.30
2018-01-15T16:36:07.268Z,9.75
2018-01-15T16:38:36.352Z,9.15
2018-01-15T16:41:09.639Z,9.30
2018-01-15T16:43:38.073Z,9.23
2018-01-15T16:46:06.625Z,9.90
2018-01-15T16:48:35.800Z,9.20
2018-01-15T16:51:05.312Z,10.13
2018-01-15T16:53:33.630Z,10.05
2018-01-15T16:56:04.284Z,8.98
2018-01-15T16:58:32.556Z,10.50
2018-01-15T17:01:12.460Z,8.95
2018-01-15T17:03:41.788Z,10.18
2018-01-15T17:06:17.402Z,9.10
2018-01-15T17:08:47.922Z,8.93
2018-01-15T17:11:16.222Z,10.25
2018-01-15T17:13:46.250Z,9.43
2018-01-15T17:16:15.524Z,10.32
2018-01-15T17:18:43.823Z,9.68
2018-01-15T17:21:12.130Z,9.85
2018-01-15T17:23:40.534Z,10.38
2018-01-15T17:26:10.432Z,10.00
2018-01-15T17:28:40.884Z,9.75
2018-01-15T17:31:09.331Z,9.70
2018-01-15T17:33:41.458Z,9.60
2018-01-15T17:36:10.019Z,10.05
2018-01-15T17:38:39.315Z,9.98
2018-01-15T17:41:07.778Z,9.30
2018-01-15T17:43:36.326Z,8.32
2018-01-15T17:46:04.714Z,8.82
2018-01-15T17:48:34.064Z,10.45
2018-01-15T17:51:02.467Z,9.85
2018-01-15T17:53:30.766Z,10.10
2018-01-15T17:56:04.339Z,9.45
2018-01-15T17:58:32.663Z,9.90
2018-01-15T18:01:00.878Z,8.82
2018-01-15T18:03:29.927Z,10.80
2018-01-15T18:05:58.156Z,8.82
2018-01-15T18:08:32.655Z,8.75
2018-01-15T18:11:13.981Z,9.80
2018-01-15T18:13:42.272Z,10.27
2018-01-15T18:18:45.799Z,9.38
2018-01-15T18:21:14.171Z,9.98
2018-01-15T18:23:42.559Z,9.10
2018-01-15T18:26:10.868Z,9.57
2018-01-15T18:28:39.247Z,9.32
2018-01-15T18:31:07.717Z,8.48
2018-01-15T18:33:36.106Z,9.23
2018-01-15T18:36:11.069Z,8.95
2018-01-15T18:39:04.350Z,9.60
2018-01-15T18:41:44.970Z,7.90
2018-01-15T18:44:26.890Z,9.00
2018-01-15T18:47:01.505Z,9.60
2018-01-15T18:49:29.786Z,8.55
2018-01-15T19:05:11.780Z,9.32
2018-01-15T19:07:56.316Z,9.20
2018-01-15T19:10:28.609Z,9.38
2018-01-15T19:22:47.652Z,9.25
2018-01-15T19:25:15.956Z,9.57
2018-01-15T19:27:44.251Z,9.63
2018-01-15T19:30:12.601Z,8.52
2018-01-15T19:32:40.930Z,9.35
2018-01-15T19:35:20.966Z,9.40
2018-01-15T19:37:50.332Z,8.90
2018-01-15T19:40:19.386Z,8.30
2018-01-15T19:42:47.661Z,9.63
2018-01-15T19:45:21.746Z,8.82
2018-01-15T19:47:55.615Z,10.32
2018-01-15T19:50:39.613Z,8.57
2018-01-15T19:53:17.499Z,8.85
2018-01-15T19:55:52.810Z,9.75
2018-01-15T19:58:29.562Z,9.57
2018-01-15T20:01:04.439Z,8.48
2018-01-15T20:03:38.390Z,8.50
2018-01-15T20:06:13.143Z,8.57
2018-01-15T20:08:51.471Z,9.05
2018-01-15T20:11:20.545Z,9.10
2018-01-15T20:13:49.694Z,8.77
2018-01-15T20:16:18.931Z,9.02
2018-01-15T20:18:47.286Z,9.27
2018-01-15T20:21:15.538Z,8.73
2018-01-15T20:23:43.798Z,9.57
2018-01-15T20:26:12.047Z,8.63
2018-01-15T20:28:40.586Z,9.38
2018-01-15T20:31:09.759Z,8.80
2018-01-15T20:33:38.070Z,8.73
2018-01-15T20:36:06.950Z,8.52
2018-01-15T20:38:35.202Z,9.35
2018-01-15T20:41:04.392Z,8.50
2018-01-15T20:43:33.632Z,9.13
2018-01-15T20:46:04.880Z,8.52
2018-01-15T20:48:33.224Z,8.80
2018-01-15T20:51:01.485Z,8.30
2018-01-15T20:53:30.795Z,8.65
2018-01-15T20:55:59.212Z,9.27
2018-01-15T20:58:27.778Z,8.80
2018-01-15T21:00:57.235Z,8.48
2018-01-15T21:03:26.615Z,9.43
2018-01-15T21:05:56.602Z,8.85
2018-01-15T21:08:24.968Z,8.25
2018-01-15T21:10:54.110Z,7.75
2018-01-15T21:13:23.135Z,9.13
2018-01-15T21:15:51.398Z,8.50
2018-01-15T21:18:19.860Z,9.02
2018-01-15T21:21:03.132Z,8.55
2018-01-15T21:23:31.538Z,8.25
2018-01-15T21:26:03.904Z,8.95
2018-01-15T21:28:35.987Z,8.05
2018-01-15T21:31:04.646Z,8.85
2018-01-15T21:33:34.312Z,8.35
2018-01-15T21:36:04.831Z,8.57
2018-01-15T21:38:36.650Z,9.77
2018-01-15T21:41:07.129Z,8.15
2018-01-15T21:43:35.470Z,8.32
2018-01-15T21:46:03.808Z,8.07
2018-01-15T21:48:32.151Z,8.60
2018-01-15T21:51:11.072Z,8.65
2018-01-15T21:53:40.217Z,9.02
2018-01-15T21:56:08.643Z,8.32
2018-01-15T21:58:38.248Z,9.07
2018-01-15T22:01:07.094Z,8.57
2018-01-15T22:03:45.107Z,9.70
2018-01-15T22:06:15.488Z,9.20
2018-01-15T22:08:49.903Z,8.45
2018-01-15T22:11:18.512Z,8.52
2018-01-15T22:13:46.974Z,8.18
2018-01-15T22:16:15.434Z,9.40
2018-01-15T22:18:43.880Z,9.10
2018-01-15T22:21:12.328Z,8.48
2018-01-15T22:23:40.982Z,9.70
2018-01-15T22:26:09.496Z,9.50
2018-01-15T22:28:47.342Z,9.13
2018-01-15T22:31:16.121Z,9.75
2018-01-15T22:33:45.569Z,8.48
2018-01-15T22:36:14.218Z,8.93
2018-01-15T22:38:54.047Z,9.23
2018-01-15T22:41:30.545Z,9.65
2018-01-15T22:44:01.228Z,9.45
2018-01-15T22:49:06.221Z,9.23
2018-01-15T22:51:36.043Z,8.85
